Main page
METAR-TAF:

METAR-TAF

Airports :

RAF Valley

Valley, Wales

latitude: 53-15N, longitude: 004-32W, elevation: 1 m

Current weather observation

The report was made 25 minutes ago, at 08:50 UTC
Wind 7 kt from the West
Temperature 9°C
Humidity 87%
Pressure 1035 hPa
Visibility 10 km or more
Few clouds at a height of 2000 ft
Broken clouds at a height of 4200 ft

METAR: EGOV 260850Z 28007KT 9999 FEW020 BKN042 09/07 Q1035 BLU TEMPO SCT020 WHT

Time: 09:15 (09:15 UTC)

Forecast

The report was made 1 hour and 26 minutes ago, at 07:49 UTC
Forecast valid from 26 at 09 UTC to 26 at 18 UTC
Wind 10 kt from the West
Visibility 10 km or more
Broken clouds at a height of 4100 ft
Probability 40% :
Temporary
from 26 at 10 UTC to 26 at 16 UTC
Scattered clouds at a height of 2000 ft

TAF: EGOV 260749Z 2609/2618 28010KT 9999 BKN041 PROB40 TEMPO 2610/2616 SCT020

Weather observations and forecasts of more than 4000 airports (METAR and TAF reports).

The available stations are represented by yellow and red dots on the map.

Hover mouse over dot to see the name of the station.

Then click to see weather observations and forecasts.

To change the map : click on the green buttons with a black cross to zoom in, on the green button with a dash to zoom out, or on the green arrows for adjacent maps.


METAR-TAF: